sensor_id;sensor_type;location;lat;lon;timestamp;pressure;altitude;pressure_sealevel;temperature;humidity
49827;BME280;35715;51.570;6.036;2024-02-15T00:00:00;101562.50;;;13.30;100.00
49827;BME280;35715;51.570;6.036;2024-02-15T00:02:35;101563.06;;;13.26;100.00
49827;BME280;35715;51.570;6.036;2024-02-15T00:05:06;101569.19;;;13.26;100.00
49827;BME280;35715;51.570;6.036;2024-02-15T00:07:33;101569.19;;;13.26;100.00
49827;BME280;35715;51.570;6.036;2024-02-15T00:10:14;101565.66;;;13.26;100.00
49827;BME280;35715;51.570;6.036;2024-02-15T00:12:52;101569.06;;;13.25;100.00
49827;BME280;35715;51.570;6.036;2024-02-15T00:15:38;101568.97;;;13.23;100.00
49827;BME280;35715;51.570;6.036;2024-02-15T00:18:12;101561.97;;;13.22;100.00
49827;BME280;35715;51.570;6.036;2024-02-15T00:20:38;101566.38;;;13.23;100.00
49827;BME280;35715;51.570;6.036;2024-02-15T00:23:09;101563.78;;;13.23;100.00
49827;BME280;35715;51.570;6.036;2024-02-15T00:25:37;101561.00;;;13.20;100.00
49827;BME280;35715;51.570;6.036;2024-02-15T00:28:12;101559.75;;;13.15;100.00
49827;BME280;35715;51.570;6.036;2024-02-15T00:30:48;101553.59;;;13.13;100.00
49827;BME280;35715;51.570;6.036;2024-02-15T00:33:22;101558.66;;;13.11;100.00
49827;BME280;35715;51.570;6.036;2024-02-15T00:35:57;101553.38;;;13.10;100.00
49827;BME280;35715;51.570;6.036;2024-02-15T00:38:40;101555.44;;;13.02;100.00
49827;BME280;35715;51.570;6.036;2024-02-15T00:41:08;101545.38;;;13.07;100.00
49827;BME280;35715;51.570;6.036;2024-02-15T00:43:36;101549.66;;;13.06;100.00
49827;BME280;35715;51.570;6.036;2024-02-15T00:46:05;101547.97;;;13.07;100.00
49827;BME280;35715;51.570;6.036;2024-02-15T00:48:34;101543.59;;;13.06;100.00
49827;BME280;35715;51.570;6.036;2024-02-15T00:51:02;101546.28;;;13.07;100.00
49827;BME280;35715;51.570;6.036;2024-02-15T00:53:31;101547.16;;;13.08;100.00
49827;BME280;35715;51.570;6.036;2024-02-15T00:56:05;101545.38;;;13.07;100.00
49827;BME280;35715;51.570;6.036;2024-02-15T00:58:31;101544.38;;;13.05;100.00
49827;BME280;35715;51.570;6.036;2024-02-15T01:01:00;101546.06;;;13.04;100.00
49827;BME280;35715;51.570;6.036;2024-02-15T01:03:28;101543.59;;;13.06;100.00
49827;BME280;35715;51.570;6.036;2024-02-15T01:06:05;101544.16;;;13.02;100.00
49827;BME280;35715;51.570;6.036;2024-02-15T01:08:30;101548.66;;;13.04;100.00
49827;BME280;35715;51.570;6.036;2024-02-15T01:11:22;101536.50;;;13.03;100.00
49827;BME280;35715;51.570;6.036;2024-02-15T01:17:07;101541.88;;;13.06;100.00
49827;BME280;35715;51.570;6.036;2024-02-15T01:19:33;101541.97;;;13.08;100.00
49827;BME280;35715;51.570;6.036;2024-02-15T01:21:58;101538.59;;;13.09;100.00
49827;BME280;35715;51.570;6.036;2024-02-15T01:24:32;101537.72;;;13.08;100.00
49827;BME280;35715;51.570;6.036;2024-02-15T01:26:58;101537.00;;;13.11;100.00
49827;BME280;35715;51.570;6.036;2024-02-15T01:29:23;101543.22;;;13.13;100.00
49827;BME280;35715;51.570;6.036;2024-02-15T01:31:52;101550.88;;;13.11;100.00
49827;BME280;35715;51.570;6.036;2024-02-15T01:34:51;101536.81;;;13.08;100.00
49827;BME280;35715;51.570;6.036;2024-02-15T01:37:20;101535.22;;;13.10;100.00
49827;BME280;35715;51.570;6.036;2024-02-15T01:40:02;101529.13;;;13.09;100.00
49827;BME280;35715;51.570;6.036;2024-02-15T01:42:37;101531.63;;;13.08;100.00
49827;BME280;35715;51.570;6.036;2024-02-15T01:45:10;101534.22;;;13.08;100.00
49827;BME280;35715;51.570;6.036;2024-02-15T01:47:39;101524.78;;;13.08;100.00
49827;BME280;35715;51.570;6.036;2024-02-15T01:50:24;101524.78;;;13.08;100.00
49827;BME280;35715;51.570;6.036;2024-02-15T01:53:04;101529.03;;;13.08;100.00
49827;BME280;35715;51.570;6.036;2024-02-15T01:55:30;101521.25;;;13.08;100.00
49827;BME280;35715;51.570;6.036;2024-02-15T01:58:11;101517.66;;;13.06;100.00
49827;BME280;35715;51.570;6.036;2024-02-15T02:00:37;101520.38;;;13.07;100.00
49827;BME280;35715;51.570;6.036;2024-02-15T02:03:08;101515.19;;;13.07;100.00
49827;BME280;35715;51.570;6.036;2024-02-15T02:05:36;101517.88;;;13.09;100.00
49827;BME280;35715;51.570;6.036;2024-02-15T02:08:07;101521.38;;;13.09;100.00
49827;BME280;35715;51.570;6.036;2024-02-15T02:10:38;101510.88;;;13.08;100.00
49827;BME280;35715;51.570;6.036;2024-02-15T02:13:14;101512.38;;;13.04;100.00
49827;BME280;35715;51.570;6.036;2024-02-15T02:15:40;101509.91;;;13.06;100.00
49827;BME280;35715;51.570;6.036;2024-02-15T02:18:05;101513.38;;;13.06;100.00
49827;BME280;35715;51.570;6.036;2024-02-15T02:20:37;101502.03;;;13.04;100.00
49827;BME280;35715;51.570;6.036;2024-02-15T02:23:16;101504.31;;;13.00;100.00
49827;BME280;35715;51.570;6.036;2024-02-15T02:25:44;101497.41;;;13.00;100.00
49827;BME280;35715;51.570;6.036;2024-02-15T02:28:10;101496.63;;;13.01;100.00
49827;BME280;35715;51.570;6.036;2024-02-15T02:30:50;101485.28;;;12.99;100.00
49827;BME280;35715;51.570;6.036;2024-02-15T02:33:33;101492.91;;;12.84;100.00
49827;BME280;35715;51.570;6.036;2024-02-15T02:36:07;101490.63;;;12.89;100.00
49827;BME280;35715;51.570;6.036;2024-02-15T02:38:56;101490.72;;;12.90;100.00
49827;BME280;35715;51.570;6.036;2024-02-15T02:42:00;101486.53;;;12.92;100.00
49827;BME280;35715;51.570;6.036;2024-02-15T02:44:38;101490.25;;;12.96;100.00
49827;BME280;35715;51.570;6.036;2024-02-15T02:47:13;101479.06;;;12.97;100.00
49827;BME280;35715;51.570;6.036;2024-02-15T02:56:06;101474.91;;;12.99;100.00
49827;BME280;35715;51.570;6.036;2024-02-15T02:58:33;101477.56;;;12.87;100.00
49827;BME280;35715;51.570;6.036;2024-02-15T03:00:59;101477.31;;;12.96;100.00
49827;BME280;35715;51.570;6.036;2024-02-15T03:03:37;101477.63;;;13.01;100.00
49827;BME280;35715;51.570;6.036;2024-02-15T03:06:04;101472.66;;;13.04;100.00
49827;BME280;35715;51.570;6.036;2024-02-15T03:08:32;101464.97;;;13.05;100.00
49827;BME280;35715;51.570;6.036;2024-02-15T03:17:45;101476.84;;;12.90;100.00
49827;BME280;35715;51.570;6.036;2024-02-15T03:20:17;101471.91;;;12.93;100.00
49827;BME280;35715;51.570;6.036;2024-02-15T03:23:00;101467.84;;;12.96;100.00
49827;BME280;35715;51.570;6.036;2024-02-15T03:26:01;101470.91;;;12.91;100.00
49827;BME280;35715;51.570;6.036;2024-02-15T03:28:47;101475.19;;;12.90;100.00
49827;BME280;35715;51.570;6.036;2024-02-15T03:31:13;101468.63;;;12.95;100.00
49827;BME280;35715;51.570;6.036;2024-02-15T03:33:48;101461.75;;;12.96;100.00
49827;BME280;35715;51.570;6.036;2024-02-15T03:36:30;101475.59;;;12.96;100.00
49827;BME280;35715;51.570;6.036;2024-02-15T03:42:12;101472.44;;;13.01;100.00
49827;BME280;35715;51.570;6.036;2024-02-15T03:44:44;101466.66;;;13.05;100.00
49827;BME280;35715;51.570;6.036;2024-02-15T03:47:09;101462.28;;;13.04;100.00
49827;BME280;35715;51.570;6.036;2024-02-15T03:49:48;101469.03;;;13.02;100.00
49827;BME280;35715;51.570;6.036;2024-02-15T03:52:13;101469.94;;;13.02;100.00
49827;BME280;35715;51.570;6.036;2024-02-15T03:54:40;101472.53;;;13.02;100.00
49827;BME280;35715;51.570;6.036;2024-02-15T03:57:37;101470.63;;;13.00;100.00
49827;BME280;35715;51.570;6.036;2024-02-15T04:00:47;101466.94;;;12.96;100.00
49827;BME280;35715;51.570;6.036;2024-02-15T04:03:12;101463.84;;;13.02;100.00
49827;BME280;35715;51.570;6.036;2024-02-15T04:05:46;101458.66;;;13.02;100.00
49827;BME280;35715;51.570;6.036;2024-02-15T04:08:18;101467.25;;;13.01;100.00
49827;BME280;35715;51.570;6.036;2024-02-15T04:10:59;101467.25;;;13.01;100.00
49827;BME280;35715;51.570;6.036;2024-02-15T04:18:51;101468.34;;;13.04;100.00
49827;BME280;35715;51.570;6.036;2024-02-15T04:21:35;101466.06;;;13.09;100.00
49827;BME280;35715;51.570;6.036;2024-02-15T04:24:16;101466.94;;;13.09;100.00
49827;BME280;35715;51.570;6.036;2024-02-15T04:26:56;101460.97;;;13.10;100.00
49827;BME280;35715;51.570;6.036;2024-02-15T04:29:22;101455.91;;;13.12;100.00
49827;BME280;35715;51.570;6.036;2024-02-15T04:31:47;101462.91;;;13.13;100.00
49827;BME280;35715;51.570;6.036;2024-02-15T04:34:15;101465.50;;;13.13;100.00
49827;BME280;35715;51.570;6.036;2024-02-15T04:36:43;101468.06;;;13.13;100.00
49827;BME280;35715;51.570;6.036;2024-02-15T04:39:10;101462.91;;;13.13;100.00
49827;BME280;35715;51.570;6.036;2024-02-15T04:41:37;101464.56;;;13.12;100.00
49827;BME280;35715;51.570;6.036;2024-02-15T04:44:04;101461.97;;;13.12;100.00
49827;BME280;35715;51.570;6.036;2024-02-15T04:46:30;101461.97;;;13.12;100.00
49827;BME280;35715;51.570;6.036;2024-02-15T04:48:56;101462.91;;;13.13;100.00
49827;BME280;35715;51.570;6.036;2024-02-15T04:51:24;101460.41;;;13.14;100.00
49827;BME280;35715;51.570;6.036;2024-02-15T04:53:52;101455.13;;;13.13;100.00
49827;BME280;35715;51.570;6.036;2024-02-15T04:56:33;101453.22;;;13.10;100.00
49827;BME280;35715;51.570;6.036;2024-02-15T04:59:18;101447.34;;;13.13;100.00
49827;BME280;35715;51.570;6.036;2024-02-15T05:01:46;101441.34;;;13.14;100.00
49827;BME280;35715;51.570;6.036;2024-02-15T05:04:12;101439.78;;;13.16;100.00
49827;BME280;35715;51.570;6.036;2024-02-15T05:06:39;101440.56;;;13.15;100.00
49827;BME280;35715;51.570;6.036;2024-02-15T05:09:05;101440.38;;;13.12;100.00
49827;BME280;35715;51.570;6.036;2024-02-15T05:11:36;101428.97;;;12.96;100.00
49827;BME280;35715;51.570;6.036;2024-02-15T05:14:14;101437.94;;;13.02;100.00
49827;BME280;35715;51.570;6.036;2024-02-15T05:23:13;101439.06;;;13.05;100.00
49827;BME280;35715;51.570;6.036;2024-02-15T05:25:49;101430.69;;;13.09;100.00
49827;BME280;35715;51.570;6.036;2024-02-15T05:28:33;101434.78;;;13.06;100.00
49827;BME280;35715;51.570;6.036;2024-02-15T05:34:19;101427.69;;;13.03;100.00
49827;BME280;35715;51.570;6.036;2024-02-15T05:36:45;101433.78;;;13.04;100.00
49827;BME280;35715;51.570;6.036;2024-02-15T05:39:24;101441.88;;;13.08;100.00
49827;BME280;35715;51.570;6.036;2024-02-15T05:41:50;101430.69;;;13.09;100.00
49827;BME280;35715;51.570;6.036;2024-02-15T05:44:15;101440.38;;;13.12;100.00
49827;BME280;35715;51.570;6.036;2024-02-15T05:46:57;101430.88;;;13.12;100.00
49827;BME280;35715;51.570;6.036;2024-02-15T05:49:31;101440.47;;;13.13;100.00
49827;BME280;35715;51.570;6.036;2024-02-15T05:52:07;101441.34;;;13.14;100.00
49827;BME280;35715;51.570;6.036;2024-02-15T05:54:50;101440.66;;;13.17;100.00
49827;BME280;35715;51.570;6.036;2024-02-15T05:57:40;101436.41;;;13.17;100.00
49827;BME280;35715;51.570;6.036;2024-02-15T06:00:17;101446.88;;;13.19;100.00
49827;BME280;35715;51.570;6.036;2024-02-15T06:02:50;101440.97;;;13.21;100.00
49827;BME280;35715;51.570;6.036;2024-02-15T06:05:20;101439.19;;;13.20;100.00
49827;BME280;35715;51.570;6.036;2024-02-15T06:07:47;101440.19;;;13.22;100.00
49827;BME280;35715;51.570;6.036;2024-02-15T06:10:27;101436.59;;;13.20;100.00
49827;BME280;35715;51.570;6.036;2024-02-15T06:12:54;101441.69;;;13.19;100.00
49827;BME280;35715;51.570;6.036;2024-02-15T06:15:20;101428.00;;;13.21;100.00
49827;BME280;35715;51.570;6.036;2024-02-15T06:17:46;101437.59;;;13.22;100.00
49827;BME280;35715;51.570;6.036;2024-02-15T06:23:14;101420.13;;;13.20;100.00
49827;BME280;35715;51.570;6.036;2024-02-15T06:26:14;101411.38;;;13.18;100.00
49827;BME280;35715;51.570;6.036;2024-02-15T06:28:54;101412.06;;;13.15;100.00
49827;BME280;35715;51.570;6.036;2024-02-15T06:31:58;101401.09;;;13.06;100.00
49827;BME280;35715;51.570;6.036;2024-02-15T06:34:51;101397.22;;;12.99;100.00
49827;BME280;35715;51.570;6.036;2024-02-15T06:37:49;101397.78;;;12.95;100.00
49827;BME280;35715;51.570;6.036;2024-02-15T06:40:39;101384.75;;;12.93;100.00
49827;BME280;35715;51.570;6.036;2024-02-15T06:43:24;101381.03;;;12.90;100.00
49827;BME280;35715;51.570;6.036;2024-02-15T06:46:19;101378.84;;;12.83;100.00
49827;BME280;35715;51.570;6.036;2024-02-15T06:49:11;101381.34;;;12.81;100.00
49827;BME280;35715;51.570;6.036;2024-02-15T06:51:39;101373.34;;;12.78;100.00
49827;BME280;35715;51.570;6.036;2024-02-15T06:54:26;101380.09;;;12.76;100.00
49827;BME280;35715;51.570;6.036;2024-02-15T06:57:07;101379.22;;;12.75;100.00
49827;BME280;35715;51.570;6.036;2024-02-15T06:59:47;101379.00;;;12.72;100.00
49827;BME280;35715;51.570;6.036;2024-02-15T07:02:13;101391.38;;;12.76;100.00
49827;BME280;35715;51.570;6.036;2024-02-15T07:04:38;101399.34;;;12.80;100.00
49827;BME280;35715;51.570;6.036;2024-02-15T07:07:04;101396.56;;;12.76;100.00
49827;BME280;35715;51.570;6.036;2024-02-15T07:12:38;101402.06;;;12.81;100.00
49827;BME280;35715;51.570;6.036;2024-02-15T07:15:37;101400.03;;;12.77;100.00
49827;BME280;35715;51.570;6.036;2024-02-15T07:18:17;101410.72;;;12.82;100.00
49827;BME280;35715;51.570;6.036;2024-02-15T07:20:47;101414.38;;;12.85;100.00
49827;BME280;35715;51.570;6.036;2024-02-15T07:23:22;101422.38;;;12.88;100.00
49827;BME280;35715;51.570;6.036;2024-02-15T07:25:48;101422.72;;;12.93;100.00
49827;BME280;35715;51.570;6.036;2024-02-15T07:28:16;101422.19;;;12.99;100.00
49827;BME280;35715;51.570;6.036;2024-02-15T07:30:52;101420.53;;;12.99;100.00
49827;BME280;35715;51.570;6.036;2024-02-15T07:33:17;101418.81;;;13.00;100.00
49827;BME280;35715;51.570;6.036;2024-02-15T07:35:46;101423.00;;;12.98;100.00
49827;BME280;35715;51.570;6.036;2024-02-15T07:42:06;101420.91;;;12.92;100.00
49827;BME280;35715;51.570;6.036;2024-02-15T07:44:49;101422.25;;;12.87;100.00
49827;BME280;35715;51.570;6.036;2024-02-15T07:47:23;101425.47;;;12.83;100.00
49827;BME280;35715;51.570;6.036;2024-02-15T07:49:50;101416.09;;;12.85;100.00
49827;BME280;35715;51.570;6.036;2024-02-15T07:52:28;101417.47;;;12.80;100.00
49827;BME280;35715;51.570;6.036;2024-02-15T07:54:54;101424.44;;;12.81;100.00
49827;BME280;35715;51.570;6.036;2024-02-15T07:57:19;101424.53;;;12.82;100.00
49827;BME280;35715;51.570;6.036;2024-02-15T07:59:45;101423.56;;;12.80;100.00
49827;BME280;35715;51.570;6.036;2024-02-15T08:02:13;101414.06;;;12.81;100.00
49827;BME280;35715;51.570;6.036;2024-02-15T08:04:42;101410.72;;;12.82;100.00
49827;BME280;35715;51.570;6.036;2024-02-15T08:07:09;101415.09;;;12.83;100.00
49827;BME280;35715;51.570;6.036;2024-02-15T08:09:37;101416.09;;;12.85;100.00
49827;BME280;35715;51.570;6.036;2024-02-15T08:12:02;101401.34;;;12.84;100.00
49827;BME280;35715;51.570;6.036;2024-02-15T08:14:28;101405.63;;;12.83;100.00
49827;BME280;35715;51.570;6.036;2024-02-15T08:16:53;101401.44;;;12.85;100.00
49827;BME280;35715;51.570;6.036;2024-02-15T08:19:20;101401.06;;;12.92;100.00
49827;BME280;35715;51.570;6.036;2024-02-15T08:21:48;101398.38;;;12.91;100.00
49827;BME280;35715;51.570;6.036;2024-02-15T08:24:16;101399.28;;;12.91;100.00
49827;BME280;35715;51.570;6.036;2024-02-15T08:26:42;101395.31;;;12.96;100.00
49827;BME280;35715;51.570;6.036;2024-02-15T08:29:08;101389.13;;;12.94;100.00
49827;BME280;35715;51.570;6.036;2024-02-15T08:31:35;101384.94;;;12.96;100.00
49827;BME280;35715;51.570;6.036;2024-02-15T08:34:04;101391.22;;;13.00;100.00
49827;BME280;35715;51.570;6.036;2024-02-15T08:36:35;101374.59;;;12.96;100.00
49827;BME280;35715;51.570;6.036;2024-02-15T08:39:01;101375.00;;;13.03;100.00
49827;BME280;35715;51.570;6.036;2024-02-15T08:41:26;101379.38;;;13.04;100.00
49827;BME280;35715;51.570;6.036;2024-02-15T08:43:53;101369.03;;;13.04;100.00
49827;BME280;35715;51.570;6.036;2024-02-15T08:46:18;101369.22;;;13.07;100.00
49827;BME280;35715;51.570;6.036;2024-02-15T08:48:44;101372.91;;;13.10;100.00
49827;BME280;35715;51.570;6.036;2024-02-15T08:51:10;101365.91;;;13.09;100.00
49827;BME280;35715;51.570;6.036;2024-02-15T08:53:42;101360.16;;;13.13;100.00
49827;BME280;35715;51.570;6.036;2024-02-15T08:56:08;101365.91;;;13.09;100.00
49827;BME280;35715;51.570;6.036;2024-02-15T08:58:34;101363.53;;;13.12;100.00
49827;BME280;35715;51.570;6.036;2024-02-15T09:01:00;101364.44;;;13.13;100.00
49827;BME280;35715;51.570;6.036;2024-02-15T09:03:25;101356.97;;;13.18;100.00
49827;BME280;35715;51.570;6.036;2024-02-15T09:05:51;101362.66;;;13.25;100.00
49827;BME280;35715;51.570;6.036;2024-02-15T09:08:16;101369.72;;;13.28;100.00
49827;BME280;35715;51.570;6.036;2024-02-15T09:10:51;101370.72;;;13.30;100.00
49827;BME280;35715;51.570;6.036;2024-02-15T09:13:17;101363.94;;;13.32;100.00
49827;BME280;35715;51.570;6.036;2024-02-15T09:15:45;101356.47;;;13.37;100.00
49827;BME280;35715;51.570;6.036;2024-02-15T09:18:12;101363.13;;;13.33;100.00
49827;BME280;35715;51.570;6.036;2024-02-15T09:20:37;101366.94;;;13.38;100.00
49827;BME280;35715;51.570;6.036;2024-02-15T09:23:05;101359.28;;;13.40;100.00
49827;BME280;35715;51.570;6.036;2024-02-15T09:25:37;101360.78;;;13.49;100.00
49827;BME280;35715;51.570;6.036;2024-02-15T09:28:03;101364.78;;;13.44;100.00
49827;BME280;35715;51.570;6.036;2024-02-15T09:30:28;101365.88;;;13.48;100.00
49827;BME280;35715;51.570;6.036;2024-02-15T09:32:54;101370.47;;;13.52;100.00
49827;BME280;35715;51.570;6.036;2024-02-15T09:35:19;101366.66;;;13.60;100.00
49827;BME280;35715;51.570;6.036;2024-02-15T09:37:47;101362.63;;;13.65;100.00
49827;BME280;35715;51.570;6.036;2024-02-15T09:40:17;101370.72;;;13.70;100.00
49827;BME280;35715;51.570;6.036;2024-02-15T09:42:43;101362.22;;;13.73;100.00
49827;BME280;35715;51.570;6.036;2024-02-15T09:45:13;101370.94;;;13.73;100.00
49827;BME280;35715;51.570;6.036;2024-02-15T09:47:40;101368.44;;;13.75;100.00
49827;BME280;35715;51.570;6.036;2024-02-15T09:50:07;101366.03;;;13.78;100.00
49827;BME280;35715;51.570;6.036;2024-02-15T09:52:33;101360.59;;;13.88;100.00
49827;BME280;35715;51.570;6.036;2024-02-15T09:55:03;101356.69;;;13.95;100.00
49827;BME280;35715;51.570;6.036;2024-02-15T09:57:29;101359.47;;;13.98;100.00
49827;BME280;35715;51.570;6.036;2024-02-15T09:59:58;101366.03;;;14.06;100.00
49827;BME280;35715;51.570;6.036;2024-02-15T10:02:26;101360.44;;;14.13;100.00
49827;BME280;35715;51.570;6.036;2024-02-15T10:04:53;101365.28;;;14.22;100.00
49827;BME280;35715;51.570;6.036;2024-02-15T10:07:24;101367.09;;;14.23;100.00
49827;BME280;35715;51.570;6.036;2024-02-15T10:09:50;101368.97;;;14.26;100.00
49827;BME280;35715;51.570;6.036;2024-02-15T10:12:16;101374.66;;;14.20;100.00
49827;BME280;35715;51.570;6.036;2024-02-15T10:14:48;101370.28;;;14.19;100.00
49827;BME280;35715;51.570;6.036;2024-02-15T10:17:15;101371.28;;;14.21;100.00
49827;BME280;35715;51.570;6.036;2024-02-15T10:19:42;101370.06;;;14.29;100.00
49827;BME280;35715;51.570;6.036;2024-02-15T10:22:10;101370.63;;;14.38;100.00
49827;BME280;35715;51.570;6.036;2024-02-15T10:24:37;101371.69;;;14.42;100.00
49827;BME280;35715;51.570;6.036;2024-02-15T10:27:05;101369.38;;;14.47;100.00
49827;BME280;35715;51.570;6.036;2024-02-15T10:29:36;101372.66;;;14.44;100.00
49827;BME280;35715;51.570;6.036;2024-02-15T10:32:03;101374.28;;;14.42;100.00
49827;BME280;35715;51.570;6.036;2024-02-15T10:34:32;101380.34;;;14.43;100.00
49827;BME280;35715;51.570;6.036;2024-02-15T10:37:12;101380.19;;;14.40;100.00
49827;BME280;35715;51.570;6.036;2024-02-15T10:39:37;101377.75;;;14.43;100.00
49827;BME280;35715;51.570;6.036;2024-02-15T10:42:06;101384.06;;;14.46;100.00
49827;BME280;35715;51.570;6.036;2024-02-15T10:44:35;101373.84;;;14.49;100.00
49827;BME280;35715;51.570;6.036;2024-02-15T10:47:01;101373.84;;;14.49;100.00
49827;BME280;35715;51.570;6.036;2024-02-15T10:49:47;101362.28;;;14.44;100.00
49827;BME280;35715;51.570;6.036;2024-02-15T10:52:19;101364.69;;;14.41;100.00
49827;BME280;35715;51.570;6.036;2024-02-15T10:54:52;101372.28;;;14.38;100.00
49827;BME280;35715;51.570;6.036;2024-02-15T10:57:37;101371.78;;;14.44;100.00
49827;BME280;35715;51.570;6.036;2024-02-15T11:00:05;101366.06;;;14.49;100.00
49827;BME280;35715;51.570;6.036;2024-02-15T11:02:42;101358.28;;;14.49;100.00
49827;BME280;35715;51.570;6.036;2024-02-15T11:05:21;101358.81;;;14.59;100.00
49827;BME280;35715;51.570;6.036;2024-02-15T11:07:49;101346.53;;;14.56;100.00
49827;BME280;35715;51.570;6.036;2024-02-15T11:10:17;101344.53;;;14.65;100.00
49827;BME280;35715;51.570;6.036;2024-02-15T11:13:02;101351.59;;;14.68;100.00
49827;BME280;35715;51.570;6.036;2024-02-15T11:19:01;101341.31;;;14.69;100.00
49827;BME280;35715;51.570;6.036;2024-02-15T11:21:53;101347.66;;;14.75;100.00
49827;BME280;35715;51.570;6.036;2024-02-15T11:42:44;101316.81;;;15.11;100.00
49827;BME280;35715;51.570;6.036;2024-02-15T11:45:15;101317.25;;;15.18;100.00
49827;BME280;35715;51.570;6.036;2024-02-15T11:47:47;101311.50;;;15.24;100.00
49827;BME280;35715;51.570;6.036;2024-02-15T11:50:14;101318.53;;;15.10;100.00
49827;BME280;35715;51.570;6.036;2024-02-15T11:53:06;101320.84;;;15.20;100.00
49827;BME280;35715;51.570;6.036;2024-02-15T11:55:39;101314.72;;;15.35;100.00
49827;BME280;35715;51.570;6.036;2024-02-15T11:58:06;101305.91;;;15.48;100.00
49827;BME280;35715;51.570;6.036;2024-02-15T12:01:00;101304.97;;;15.47;100.00
49827;BME280;35715;51.570;6.036;2024-02-15T12:03:44;101311.25;;;15.51;100.00
49827;BME280;35715;51.570;6.036;2024-02-15T12:06:28;101301.84;;;15.53;99.37
49827;BME280;35715;51.570;6.036;2024-02-15T12:09:12;101300.22;;;15.55;98.88
49827;BME280;35715;51.570;6.036;2024-02-15T12:12:11;101294.59;;;15.64;97.91
49827;BME280;35715;51.570;6.036;2024-02-15T12:15:05;101295.19;;;15.74;96.32
49827;BME280;35715;51.570;6.036;2024-02-15T12:17:49;101290.03;;;15.91;96.25
49827;BME280;35715;51.570;6.036;2024-02-15T12:20:35;101289.47;;;16.13;96.05
49827;BME280;35715;51.570;6.036;2024-02-15T12:23:21;101282.91;;;16.38;96.04
49827;BME280;35715;51.570;6.036;2024-02-15T12:25:54;101279.50;;;16.73;95.42
49827;BME280;35715;51.570;6.036;2024-02-15T12:28:30;101276.16;;;17.12;94.17
49827;BME280;35715;51.570;6.036;2024-02-15T12:30:58;101267.75;;;17.17;91.21
49827;BME280;35715;51.570;6.036;2024-02-15T12:33:24;101269.50;;;17.36;90.68
49827;BME280;35715;51.570;6.036;2024-02-15T12:35:49;101261.16;;;17.83;87.84
49827;BME280;35715;51.570;6.036;2024-02-15T12:38:18;101264.97;;;18.09;84.31
49827;BME280;35715;51.570;6.036;2024-02-15T12:40:44;101260.16;;;18.18;83.55
49827;BME280;35715;51.570;6.036;2024-02-15T12:43:10;101258.06;;;18.31;83.10
49827;BME280;35715;51.570;6.036;2024-02-15T12:45:45;101251.84;;;18.07;81.25
49827;BME280;35715;51.570;6.036;2024-02-15T12:48:11;101245.72;;;17.87;82.79
49827;BME280;35715;51.570;6.036;2024-02-15T12:50:42;101247.91;;;17.78;82.95
49827;BME280;35715;51.570;6.036;2024-02-15T12:53:08;101232.06;;;17.73;84.08
49827;BME280;35715;51.570;6.036;2024-02-15T12:55:38;101234.38;;;17.67;83.99
49827;BME280;35715;51.570;6.036;2024-02-15T12:58:12;101230.72;;;17.64;83.87
49827;BME280;35715;51.570;6.036;2024-02-15T13:00:55;101226.81;;;17.54;81.92
49827;BME280;35715;51.570;6.036;2024-02-15T13:03:30;101222.56;;;17.56;83.03
49827;BME280;35715;51.570;6.036;2024-02-15T13:06:01;101217.06;;;17.50;81.82
49827;BME280;35715;51.570;6.036;2024-02-15T13:08:26;101220.59;;;17.50;81.88
49827;BME280;35715;51.570;6.036;2024-02-15T13:10:52;101225.66;;;17.47;81.87
49827;BME280;35715;51.570;6.036;2024-02-15T13:13:29;101219.13;;;17.37;80.48
49827;BME280;35715;51.570;6.036;2024-02-15T13:15:55;101213.97;;;17.39;81.08
49827;BME280;35715;51.570;6.036;2024-02-15T13:18:20;101215.69;;;17.38;81.09
49827;BME280;35715;51.570;6.036;2024-02-15T13:28:09;101188.88;;;17.41;81.01
49827;BME280;35715;51.570;6.036;2024-02-15T13:34:42;101190.38;;;17.55;78.59
49827;BME280;35715;51.570;6.036;2024-02-15T13:37:33;101186.75;;;17.52;77.60
49827;BME280;35715;51.570;6.036;2024-02-15T13:39:58;101186.31;;;17.62;79.34
49827;BME280;35715;51.570;6.036;2024-02-15T13:42:23;101175.94;;;17.64;79.32
49827;BME280;35715;51.570;6.036;2024-02-15T13:48:55;101157.84;;;17.47;76.51
49827;BME280;35715;51.570;6.036;2024-02-15T13:51:23;101164.63;;;17.63;77.74
49827;BME280;35715;51.570;6.036;2024-02-15T13:57:41;101151.41;;;17.80;75.02
49827;BME280;35715;51.570;6.036;2024-02-15T14:07:28;101132.94;;;17.95;76.08
49827;BME280;35715;51.570;6.036;2024-02-15T14:09:54;101132.88;;;17.93;75.48
49827;BME280;35715;51.570;6.036;2024-02-15T14:12:19;101129.38;;;17.93;74.53
49827;BME280;35715;51.570;6.036;2024-02-15T14:14:47;101126.00;;;17.95;74.31
49827;BME280;35715;51.570;6.036;2024-02-15T14:17:16;101122.13;;;18.06;74.81
49827;BME280;35715;51.570;6.036;2024-02-15T14:19:41;101125.56;;;18.05;74.05
49827;BME280;35715;51.570;6.036;2024-02-15T14:22:06;101128.91;;;18.03;73.78
49827;BME280;35715;51.570;6.036;2024-02-15T14:24:37;101121.16;;;18.04;73.86
49827;BME280;35715;51.570;6.036;2024-02-15T14:27:03;101119.31;;;18.02;74.85
49827;BME280;35715;51.570;6.036;2024-02-15T14:29:29;101108.81;;;18.00;75.03
49827;BME280;35715;51.570;6.036;2024-02-15T14:31:58;101118.78;;;17.89;74.51
49827;BME280;35715;51.570;6.036;2024-02-15T14:34:42;101106.84;;;17.75;74.88
49827;BME280;35715;51.570;6.036;2024-02-15T14:37:07;101104.53;;;17.62;73.85
49827;BME280;35715;51.570;6.036;2024-02-15T14:39:32;101112.22;;;17.59;74.31